Purdue University Airport
KLAF : now visible

Airfield :











YOU CAN JOIN US ON...

 
LOGIN :

Register | Disclaimer

   EN    FR    IT 

 









Legend :    VFR   Marginal VFR   IFR   Intensive IFR   Very Intensive IFR
Visi :
Ceiling :
>= 8 km
>= 3000ft
5 to 8 km
1000 to 3000 ft
1500m to 5 km
500 to 1000 ft
800 to 1500m
200 to 500 ft
< 800m
< 200 ft
Symbols :   Thunderstorms  Fog  Heavy snow  Heavy precipitations  Wind > 20 kt






- Airport Elevation : 606 ft
- IATA code : LAF


KLAF - Purdue University

CURRENT METAR :
  • 262354Z 35005KT 10SM BKN013 OVC075 06/04 A3028 RMK AO2 RAB2255E09 SLP256 P0000 60002 T00610039 10100 20061 53014

EXPIRED METARs :
  • 262324Z 34008KT 10SM BKN015 BKN046 OVC110 06/04 A3028 RMK AO2 RAB2255E09 PRESRR P0000 T00610039
  • 262306Z 34006KT 10SM -RA BKN016 BKN047 OVC110 06/04 A3025 RMK AO2 RAB2255 P0000 T00610044
  • 262254Z 01008KT 10SM BKN014 BKN042 OVC110 06/04 A3025 RMK AO2 SLP245 T00610039
  • 262154Z 36010KT 10SM OVC011 07/04 A3025 RMK AO2 SLP244 T00670044

TAF KLAF
Valid from the 27 at 00:00 until the 28 at 00:00 UTC


262322Z 2700/2724 36008KT P6SM VCSH OVC018
FM270300 01007KT P6SM OVC021
FM270600 01005KT P6SM OVC019
FM270800 01005KT P6SM OVC020
FM271300 36005KT P6SM OVC018
FM271900 33005KT P6SM OVC021
FM272200 VRB04KT P6SM OVC045 AMD LTD TO CLD VIS AND WIND 2701/2713
KZAU FIR / North America



MET'MAP, your aeronautical weather chart ! - Copyright ORBIFLY December 2007 - Disclaimer

ORBIFLY MET'MAP TEAM :

Programming & Development : Alexandra Zaïnal
Concept & original design : Baudouin d'Aumeries
Assistance for programming : Marc-Olivier Méhu
Technical & hardware support : Manuel Goepfert

Contact : metmap@orbifly.com




SOURCES & CREDITS :

   NOAA       Earth
Advisory